Time;durP1;ratioP1;P1;durP2;ratioP2;P2;SDS_P1;SDS_P2;PMS_P1;PMS_P2;Temp;Humidity;BMP_temperature;BMP_pressure;BME280_temperature;BME280_humidity;BME280_pressure;Samples;Min_cycle;Max_cycle;Signal;HPM_P1;HPM_P2
2021/04/25 00:02:04;;;;;;;27.65;14.50;;;;;;;;;;5113917;28;20023;-67
2021/04/25 00:04:30;;;;;;;20.40;12.88;;;;;;;;;;5112609;28;20038;-68
2021/04/25 00:06:55;;;;;;;27.25;13.57;;;;;;;;;;5095774;28;20065;-68
2021/04/25 00:09:21;;;;;;;25.65;14.30;;;;;;;;;;5113909;28;20372;-68
2021/04/25 00:11:47;;;;;;;24.67;13.60;;;;;;;;;;5113094;28;20068;-67
2021/04/25 00:14:12;;;;;;;27.23;15.38;;;;;;;;;;5114125;28;20086;-68
2021/04/25 00:16:38;;;;;;;33.17;15.98;;;;;;;;;;5112372;28;20019;-68
2021/04/25 00:19:05;;;;;;;28.52;16.15;;;;;;;;;;5112291;28;20031;-67
2021/04/25 00:21:30;;;;;;;32.00;17.45;;;;;;;;;;5113777;28;20060;-68
2021/04/25 00:23:56;;;;;;;44.65;20.17;;;;;;;;;;5112369;28;20028;-67
2021/04/25 00:26:21;;;;;;;34.20;16.45;;;;;;;;;;5113615;28;20016;-68
2021/04/25 00:28:47;;;;;;;30.52;15.55;;;;;;;;;;5097829;28;20121;-69
2021/04/25 00:31:12;;;;;;;30.23;14.65;;;;;;;;;;5117763;28;20020;-68
2021/04/25 00:33:38;;;;;;;28.35;13.88;;;;;;;;;;5117718;28;20590;-67
2021/04/25 00:36:04;;;;;;;24.17;13.57;;;;;;;;;;5116255;28;20012;-67
2021/04/25 00:38:29;;;;;;;24.42;13.13;;;;;;;;;;5115802;28;20024;-69
2021/04/25 00:40:55;;;;;;;21.25;11.57;;;;;;;;;;5117049;28;20044;-67
2021/04/25 00:43:21;;;;;;;24.25;11.00;;;;;;;;;;5116561;28;20028;-67
2021/04/25 00:45:46;;;;;;;21.98;11.60;;;;;;;;;;5117404;27;20031;-67
2021/04/25 00:48:12;;;;;;;25.58;11.68;;;;;;;;;;5117306;28;20026;-67
2021/04/25 00:50:37;;;;;;;20.30;11.15;;;;;;;;;;5115718;28;20050;-68
2021/04/25 00:53:03;;;;;;;27.80;13.85;;;;;;;;;;5115892;28;20055;-67
2021/04/25 00:55:30;;;;;;;23.02;12.45;;;;;;;;;;5117127;28;20020;-68
2021/04/25 00:57:56;;;;;;;22.70;11.57;;;;;;;;;;5117443;28;20027;-68
2021/04/25 01:00:22;;;;;;;22.55;11.57;;;;;;;;;;5116080;28;20138;-68
2021/04/25 01:02:48;;;;;;;21.60;10.15;;;;;;;;;;5115981;28;20103;-68
2021/04/25 01:05:16;;;;;;;22.58;10.13;;;;;;;;;;5117030;28;20014;-68
2021/04/25 01:07:42;;;;;;;17.58;10.00;;;;;;;;;;5117081;28;20027;-68
2021/04/25 01:10:09;;;;;;;18.27;9.60;;;;;;;;;;5117199;27;20019;-68
2021/04/25 01:12:35;;;;;;;19.27;10.35;;;;;;;;;;5117350;28;20023;-68
2021/04/25 01:15:00;;;;;;;18.42;9.30;;;;;;;;;;5116841;28;20415;-68
2021/04/25 01:17:26;;;;;;;15.80;9.32;;;;;;;;;;5116963;28;20053;-68
2021/04/25 01:19:52;;;;;;;15.57;9.27;;;;;;;;;;5116759;28;20019;-67
2021/04/25 01:22:20;;;;;;;16.50;10.00;;;;;;;;;;5116630;28;20386;-66
2021/04/25 01:24:45;;;;;;;16.88;9.50;;;;;;;;;;5116678;28;20413;-67
2021/04/25 01:27:11;;;;;;;17.65;10.93;;;;;;;;;;5116814;28;20032;-67
2021/04/25 01:29:36;;;;;;;15.63;9.20;;;;;;;;;;5116920;28;20051;-67
2021/04/25 01:32:03;;;;;;;15.50;9.88;;;;;;;;;;5116510;28;20039;-67
2021/04/25 01:34:29;;;;;;;18.23;10.15;;;;;;;;;;5116472;28;20544;-67
2021/04/25 01:36:56;;;;;;;20.52;11.13;;;;;;;;;;5116555;28;20118;-67
2021/04/25 01:39:23;;;;;;;18.45;11.43;;;;;;;;;;5115603;28;20077;-68
2021/04/25 01:41:48;;;;;;;16.55;10.90;;;;;;;;;;5115044;28;20071;-68
2021/04/25 01:44:14;;;;;;;16.17;10.45;;;;;;;;;;5116023;28;20043;-68
2021/04/25 01:46:39;;;;;;;15.68;9.95;;;;;;;;;;5114971;28;20389;-68
2021/04/25 01:49:05;;;;;;;16.73;9.80;;;;;;;;;;5116463;28;20125;-68
2021/04/25 01:51:30;;;;;;;26.30;13.40;;;;;;;;;;5114779;28;20055;-68
2021/04/25 01:53:56;;;;;;;33.35;15.90;;;;;;;;;;5115070;28;20061;-68
2021/04/25 01:56:21;;;;;;;28.00;13.52;;;;;;;;;;5116119;28;20077;-68
2021/04/25 01:58:47;;;;;;;23.75;12.50;;;;;;;;;;5116100;28;20442;-68
2021/04/25 02:01:12;;;;;;;26.23;12.95;;;;;;;;;;5116046;28;20024;-68
2021/04/25 02:03:38;;;;;;;28.08;14.40;;;;;;;;;;5115904;28;20407;-67
2021/04/25 02:06:03;;;;;;;28.90;15.00;;;;;;;;;;5116347;28;20039;-67
2021/04/25 02:08:29;;;;;;;28.15;14.52;;;;;;;;;;5115978;28;20023;-67
2021/04/25 02:10:54;;;;;;;24.77;13.25;;;;;;;;;;5114844;28;20035;-67
2021/04/25 02:13:20;;;;;;;23.08;13.27;;;;;;;;;;5115927;28;20323;-67
2021/04/25 02:15:45;;;;;;;24.17;13.00;;;;;;;;;;5116016;28;20032;-67
2021/04/25 02:18:11;;;;;;;25.05;12.15;;;;;;;;;;5115889;28;20023;-67
2021/04/25 02:20:38;;;;;;;24.92;12.80;;;;;;;;;;5114064;28;20032;-67
2021/04/25 02:23:03;;;;;;;25.27;12.93;;;;;;;;;;5115483;27;20023;-66
2021/04/25 02:25:28;;;;;;;26.40;12.98;;;;;;;;;;5115434;28;20020;-67
2021/04/25 02:27:55;;;;;;;22.90;13.25;;;;;;;;;;5115707;28;20350;-67
2021/04/25 02:30:20;;;;;;;23.50;14.20;;;;;;;;;;5115563;28;20084;-67
2021/04/25 02:32:47;;;;;;;23.80;13.82;;;;;;;;;;5115248;28;20023;-67
2021/04/25 02:35:14;;;;;;;26.73;14.38;;;;;;;;;;5114133;28;20111;-67
2021/04/25 02:37:40;;;;;;;25.42;13.48;;;;;;;;;;5096990;28;20081;-68
2021/04/25 02:40:10;;;;;;;23.80;13.38;;;;;;;;;;5115043;28;20405;-67
2021/04/25 02:42:35;;;;;;;24.63;13.70;;;;;;;;;;5114992;28;20042;-67
2021/04/25 02:45:01;;;;;;;27.15;13.90;;;;;;;;;;5115224;28;20098;-69
2021/04/25 02:47:26;;;;;;;26.80;14.60;;;;;;;;;;5114989;28;20011;-69
2021/04/25 02:49:52;;;;;;;27.20;14.25;;;;;;;;;;5115017;28;20031;-68
2021/04/25 02:52:17;;;;;;;26.65;15.27;;;;;;;;;;5115090;28;20019;-69
2021/04/25 02:54:43;;;;;;;28.55;15.18;;;;;;;;;;5115181;28;20035;-69
2021/04/25 02:57:08;;;;;;;27.50;15.50;;;;;;;;;;5113535;28;20031;-69
2021/04/25 02:59:34;;;;;;;30.98;15.57;;;;;;;;;;5114827;28;20466;-69
2021/04/25 03:01:59;;;;;;;28.00;15.75;;;;;;;;;;5113909;28;20020;-67
2021/04/25 03:04:25;;;;;;;31.50;16.45;;;;;;;;;;5115076;28;20027;-68
2021/04/25 03:06:50;;;;;;;32.50;15.77;;;;;;;;;;5114793;28;20016;-68
2021/04/25 03:09:15;;;;;;;27.00;14.75;;;;;;;;;;5114789;28;20122;-68
2021/04/25 03:11:41;;;;;;;28.83;15.30;;;;;;;;;;5114853;28;20350;-67
2021/04/25 03:14:06;;;;;;;29.90;15.30;;;;;;;;;;5114881;28;20035;-67
2021/04/25 03:16:32;;;;;;;28.23;15.88;;;;;;;;;;5114997;28;20044;-67
2021/04/25 03:18:57;;;;;;;28.65;16.20;;;;;;;;;;5114119;28;20063;-67
2021/04/25 03:21:23;;;;;;;31.05;16.95;;;;;;;;;;5113329;28;20016;-66
2021/04/25 03:23:49;;;;;;;31.50;15.73;;;;;;;;;;5114594;28;20023;-66
2021/04/25 03:26:15;;;;;;;27.73;15.98;;;;;;;;;;5114580;28;20023;-67
2021/04/25 03:28:41;;;;;;;24.95;14.18;;;;;;;;;;5112920;28;20026;-66
2021/04/25 03:31:07;;;;;;;23.02;14.25;;;;;;;;;;5114166;28;20025;-67
2021/04/25 03:33:32;;;;;;;30.17;14.90;;;;;;;;;;5113079;28;20085;-67
2021/04/25 03:35:57;;;;;;;32.60;16.80;;;;;;;;;;5114408;28;20024;-67
2021/04/25 03:38:27;;;;;;;33.35;16.30;;;;;;;;;;5114417;28;20023;-67
2021/04/25 03:40:54;;;;;;;27.95;14.18;;;;;;;;;;5112576;28;20043;-67
2021/04/25 03:43:20;;;;;;;25.80;13.50;;;;;;;;;;5113026;28;20027;-67
2021/04/25 03:45:46;;;;;;;32.17;16.85;;;;;;;;;;5113973;28;20521;-67
2021/04/25 03:48:11;;;;;;;29.15;15.73;;;;;;;;;;5112830;28;20118;-67
2021/04/25 03:50:37;;;;;;;28.90;16.25;;;;;;;;;;5114106;28;20026;-67
2021/04/25 03:53:02;;;;;;;31.05;17.05;;;;;;;;;;5114176;28;20059;-67
2021/04/25 03:55:28;;;;;;;30.67;16.75;;;;;;;;;;5112802;28;20024;-68
2021/04/25 03:57:53;;;;;;;29.08;15.50;;;;;;;;;;5114191;28;20042;-64
2021/04/25 04:00:19;;;;;;;28.02;16.13;;;;;;;;;;5113721;28;20465;-64
2021/04/25 04:02:45;;;;;;;28.27;15.32;;;;;;;;;;5113620;28;20072;-65
2021/04/25 04:05:13;;;;;;;26.30;14.45;;;;;;;;;;5112656;28;20043;-67
2021/04/25 04:07:38;;;;;;;29.13;14.40;;;;;;;;;;5114031;28;20031;-67
2021/04/25 04:10:04;;;;;;;27.85;14.77;;;;;;;;;;5114123;28;20110;-67
2021/04/25 04:12:29;;;;;;;24.30;14.07;;;;;;;;;;5113786;28;20108;-67
2021/04/25 04:14:55;;;;;;;22.45;12.95;;;;;;;;;;5113897;28;20102;-68
2021/04/25 04:17:20;;;;;;;22.63;14.07;;;;;;;;;;5113336;28;20032;-68
2021/04/25 04:19:46;;;;;;;25.70;13.77;;;;;;;;;;5111984;28;20027;-67
2021/04/25 04:22:12;;;;;;;29.27;14.77;;;;;;;;;;5112099;28;20102;-67
2021/04/25 04:24:38;;;;;;;28.02;13.90;;;;;;;;;;5112078;28;20047;-67
2021/04/25 04:27:04;;;;;;;27.17;14.85;;;;;;;;;;5113421;28;20020;-67
2021/04/25 04:29:29;;;;;;;29.35;15.15;;;;;;;;;;5113561;28;20030;-67
2021/04/25 04:31:55;;;;;;;28.77;15.15;;;;;;;;;;5113312;28;20036;-67
2021/04/25 04:34:21;;;;;;;29.50;16.70;;;;;;;;;;5112013;28;20115;-66
2021/04/25 04:36:47;;;;;;;37.58;20.77;;;;;;;;;;5113311;28;20027;-66
2021/04/25 04:39:13;;;;;;;37.30;20.95;;;;;;;;;;5113187;28;20023;-66
2021/04/25 04:41:38;;;;;;;33.13;18.23;;;;;;;;;;5111589;28;20101;-68
2021/04/25 04:44:04;;;;;;;50.08;26.48;;;;;;;;;;5112082;28;20027;-66
2021/04/25 04:46:31;;;;;;;46.10;25.88;;;;;;;;;;5113355;28;20114;-72
2021/04/25 04:48:56;;;;;;;43.38;25.38;;;;;;;;;;5113490;28;20027;-73
2021/04/25 04:51:22;;;;;;;42.33;23.50;;;;;;;;;;5113217;28;20102;-66
2021/04/25 04:53:47;;;;;;;37.80;19.20;;;;;;;;;;5113106;28;20011;-71
2021/04/25 04:56:13;;;;;;;32.95;16.40;;;;;;;;;;5113415;28;20077;-72
2021/04/25 04:58:38;;;;;;;28.83;14.32;;;;;;;;;;5113105;28;20039;-72
2021/04/25 05:01:04;;;;;;;29.20;15.73;;;;;;;;;;5113117;28;20497;-71
2021/04/25 05:03:29;;;;;;;31.40;16.98;;;;;;;;;;5113221;28;20016;-71
2021/04/25 05:05:55;;;;;;;35.95;18.55;;;;;;;;;;5111638;28;20119;-71
2021/04/25 05:08:20;;;;;;;39.03;18.63;;;;;;;;;;5113223;28;20020;-72
2021/04/25 05:10:46;;;;;;;34.97;17.13;;;;;;;;;;5111815;28;20038;-72
2021/04/25 05:13:11;;;;;;;33.17;17.40;;;;;;;;;;5113335;28;20045;-72
2021/04/25 05:15:38;;;;;;;29.52;16.13;;;;;;;;;;5115343;28;20031;-72
2021/04/25 05:18:03;;;;;;;29.05;16.02;;;;;;;;;;5116716;28;20066;-72
2021/04/25 05:20:29;;;;;;;28.33;16.02;;;;;;;;;;5116797;28;20404;-72
2021/04/25 05:22:55;;;;;;;29.90;16.48;;;;;;;;;;5116840;28;20023;-72
2021/04/25 05:25:20;;;;;;;33.58;17.48;;;;;;;;;;5116928;28;20111;-72
2021/04/25 05:27:46;;;;;;;31.98;19.42;;;;;;;;;;5115304;28;20479;-72
2021/04/25 05:30:12;;;;;;;34.65;18.40;;;;;;;;;;5116720;28;20023;-72
2021/04/25 05:32:37;;;;;;;33.90;18.27;;;;;;;;;;5116653;28;20460;-70
2021/04/25 05:35:03;;;;;;;31.20;17.08;;;;;;;;;;5116938;28;20073;-68
2021/04/25 05:37:28;;;;;;;32.17;15.95;;;;;;;;;;5116606;28;20049;-67
2021/04/25 05:39:54;;;;;;;29.58;16.30;;;;;;;;;;5115326;28;20027;-68
2021/04/25 05:42:19;;;;;;;31.33;15.68;;;;;;;;;;5116126;28;20122;-68
2021/04/25 05:44:45;;;;;;;34.20;16.52;;;;;;;;;;5116319;28;20034;-68
2021/04/25 05:47:10;;;;;;;29.33;16.70;;;;;;;;;;5116283;28;20015;-68
2021/04/25 05:49:36;;;;;;;30.65;16.88;;;;;;;;;;5116256;28;20028;-68
2021/04/25 05:52:01;;;;;;;31.75;16.73;;;;;;;;;;5116272;28;20020;-68
2021/04/25 05:54:27;;;;;;;30.92;15.85;;;;;;;;;;5116139;28;20407;-68
2021/04/25 05:56:52;;;;;;;34.40;17.15;;;;;;;;;;5116122;28;20024;-68
2021/04/25 05:59:18;;;;;;;32.25;16.67;;;;;;;;;;5114836;28;20039;-70
2021/04/25 06:01:43;;;;;;;31.20;16.50;;;;;;;;;;5114580;28;20015;-70
2021/04/25 06:04:09;;;;;;;28.90;16.30;;;;;;;;;;5115970;28;20043;-70
2021/04/25 06:06:34;;;;;;;31.40;16.27;;;;;;;;;;5114715;28;20505;-70
2021/04/25 06:09:00;;;;;;;31.63;16.55;;;;;;;;;;5115973;28;20031;-70
2021/04/25 06:11:25;;;;;;;19.58;10.27;;;;;;;;;;5115704;28;20015;-70
2021/04/25 06:13:51;;;;;;;23.65;11.15;;;;;;;;;;5115811;28;20020;-70
2021/04/25 06:16:16;;;;;;;24.92;13.48;;;;;;;;;;5114130;28;20023;-70
2021/04/25 06:18:42;;;;;;;29.50;16.13;;;;;;;;;;5113454;28;20381;-70
2021/04/25 06:21:09;;;;;;;28.45;16.45;;;;;;;;;;5113228;28;20012;-70
2021/04/25 06:23:34;;;;;;;32.30;15.40;;;;;;;;;;5095025;28;20027;-70
2021/04/25 06:26:00;;;;;;;25.42;15.18;;;;;;;;;;5112717;28;20015;-70
2021/04/25 06:28:28;;;;;;;26.83;14.63;;;;;;;;;;5113187;28;20055;-69
2021/04/25 06:30:54;;;;;;;23.30;13.68;;;;;;;;;;5112999;28;20012;-70
2021/04/25 06:33:20;;;;;;;24.30;13.93;;;;;;;;;;5113342;28;20027;-70
2021/04/25 06:35:45;;;;;;;26.50;13.85;;;;;;;;;;5115003;28;20034;-70
2021/04/25 06:38:11;;;;;;;20.92;12.45;;;;;;;;;;5115051;28;20028;-69
2021/04/25 06:40:36;;;;;;;21.92;11.60;;;;;;;;;;5114609;28;20359;-69
2021/04/25 06:43:04;;;;;;;24.55;12.63;;;;;;;;;;5115147;28;20412;-69
2021/04/25 06:45:30;;;;;;;25.13;12.65;;;;;;;;;;5113588;28;20385;-69
2021/04/25 06:47:55;;;;;;;27.15;13.98;;;;;;;;;;5114740;28;20020;-69
2021/04/25 06:50:21;;;;;;;22.75;13.05;;;;;;;;;;5114682;28;20015;-69
2021/04/25 06:52:47;;;;;;;17.27;9.13;;;;;;;;;;5114337;28;20035;-69
2021/04/25 06:55:17;;;;;;;18.10;9.23;;;;;;;;;;5114841;28;20032;-69
2021/04/25 06:57:48;;;;;;;17.95;7.43;;;;;;;;;;5113530;28;20032;-69
2021/04/25 07:00:14;;;;;;;15.63;7.38;;;;;;;;;;5114435;28;20020;-69
2021/04/25 07:02:39;;;;;;;8.02;4.50;;;;;;;;;;5114461;28;20019;-69
2021/04/25 07:05:05;;;;;;;36.03;15.00;;;;;;;;;;5114488;28;20085;-69
2021/04/25 07:07:31;;;;;;;7.93;4.85;;;;;;;;;;5114352;28;20526;-69
2021/04/25 07:09:57;;;;;;;8.43;4.82;;;;;;;;;;5114359;28;20032;-69
2021/04/25 07:12:22;;;;;;;9.70;4.40;;;;;;;;;;5113205;28;20026;-69
2021/04/25 07:14:48;;;;;;;34.35;9.13;;;;;;;;;;5114394;28;20032;-69
2021/04/25 07:17:13;;;;;;;14.40;8.00;;;;;;;;;;5114135;28;20058;-69
2021/04/25 07:19:39;;;;;;;8.50;5.25;;;;;;;;;;5112772;28;20031;-69
2021/04/25 07:22:04;;;;;;;15.18;8.40;;;;;;;;;;5114200;28;20026;-69
2021/04/25 07:24:30;;;;;;;18.55;9.05;;;;;;;;;;5095994;28;20027;-69
2021/04/25 07:26:55;;;;;;;9.65;5.78;;;;;;;;;;5114070;28;20024;-69
2021/04/25 07:29:21;;;;;;;8.45;4.68;;;;;;;;;;5113985;28;20051;-69
2021/04/25 07:31:46;;;;;;;10.93;5.30;;;;;;;;;;5112779;28;20020;-69
2021/04/25 07:34:12;;;;;;;4.90;3.42;;;;;;;;;;5113961;28;20118;-69
2021/04/25 07:36:37;;;;;;;2.85;2.55;;;;;;;;;;5113940;28;20153;-69
2021/04/25 07:39:04;;;;;;;2.08;1.88;;;;;;;;;;5111845;28;20028;-69
2021/04/25 07:41:29;;;;;;;2.67;2.42;;;;;;;;;;5112254;28;20463;-69
2021/04/25 07:43:56;;;;;;;5.28;4.80;;;;;;;;;;5112488;28;20182;-70
2021/04/25 07:46:22;;;;;;;5.15;4.05;;;;;;;;;;5113718;28;20026;-69
2021/04/25 07:48:47;;;;;;;4.85;3.58;;;;;;;;;;5113811;28;20024;-69
2021/04/25 07:51:13;;;;;;;2.78;2.50;;;;;;;;;;5095496;28;20111;-69
2021/04/25 07:53:38;;;;;;;2.35;2.15;;;;;;;;;;5113730;28;20031;-69
2021/04/25 07:56:04;;;;;;;7.63;5.43;;;;;;;;;;5113738;28;20023;-69
2021/04/25 07:58:29;;;;;;;8.35;4.45;;;;;;;;;;5113556;28;20422;-69
2021/04/25 08:00:55;;;;;;;2.88;2.55;;;;;;;;;;5112326;28;20065;-70
2021/04/25 08:03:20;;;;;;;12.27;8.40;;;;;;;;;;5112329;28;20039;-70
2021/04/25 08:05:46;;;;;;;6.15;4.53;;;;;;;;;;5112320;28;20019;-70
2021/04/25 08:08:11;;;;;;;6.80;4.72;;;;;;;;;;5113537;28;20016;-70
2021/04/25 08:10:37;;;;;;;2.85;2.47;;;;;;;;;;5112399;28;20020;-69
2021/04/25 08:13:02;;;;;;;3.20;2.42;;;;;;;;;;5113433;28;20024;-70
2021/04/25 08:15:29;;;;;;;1.95;1.80;;;;;;;;;;5113442;28;20110;-70
2021/04/25 08:17:57;;;;;;;2.72;2.13;;;;;;;;;;5113501;28;20439;-70
2021/04/25 08:20:23;;;;;;;2.58;1.77;;;;;;;;;;5112239;28;20015;-70
2021/04/25 08:22:49;;;;;;;2.72;2.30;;;;;;;;;;5113493;28;20024;-69
2021/04/25 08:25:14;;;;;;;1.95;1.70;;;;;;;;;;5113435;28;20061;-70
2021/04/25 08:27:40;;;;;;;2.70;1.70;;;;;;;;;;5112168;28;20460;-69
2021/04/25 08:30:06;;;;;;;2.10;1.90;;;;;;;;;;5113362;28;20562;-70
2021/04/25 08:32:32;;;;;;;2.00;1.90;;;;;;;;;;5113312;28;20030;-70
2021/04/25 08:34:57;;;;;;;1.73;1.63;;;;;;;;;;5113274;28;20088;-70
2021/04/25 08:37:22;;;;;;;3.40;2.90;;;;;;;;;;5113281;28;20023;-70
2021/04/25 08:39:48;;;;;;;2.00;1.70;;;;;;;;;;5113249;28;20019;-70
2021/04/25 08:42:14;;;;;;;2.08;1.65;;;;;;;;;;5112730;28;20054;-70
2021/04/25 08:44:43;;;;;;;2.53;2.00;;;;;;;;;;5113293;28;20023;-70
2021/04/25 08:47:09;;;;;;;2.03;1.85;;;;;;;;;;5113292;28;20012;-70
2021/04/25 08:49:34;;;;;;;7.20;4.72;;;;;;;;;;5113963;28;20032;-70
2021/04/25 08:52:00;;;;;;;3.13;2.40;;;;;;;;;;5117040;28;20028;-70
2021/04/25 08:54:26;;;;;;;1.67;1.58;;;;;;;;;;5116942;28;20032;-70
2021/04/25 08:56:52;;;;;;;2.20;2.00;;;;;;;;;;5115741;28;20016;-70
2021/04/25 08:59:18;;;;;;;2.20;1.90;;;;;;;;;;5115532;28;20028;-70
2021/04/25 09:01:44;;;;;;;1.52;1.38;;;;;;;;;;5116886;28;20358;-70
2021/04/25 09:04:09;;;;;;;4.55;3.13;;;;;;;;;;5116802;28;20064;-69
2021/04/25 09:06:35;;;;;;;3.22;2.22;;;;;;;;;;5116826;28;20106;-69
2021/04/25 09:09:04;;;;;;;2.25;1.85;;;;;;;;;;5116855;27;20028;-70
2021/04/25 09:11:33;;;;;;;2.50;2.03;;;;;;;;;;5116702;28;20377;-70
2021/04/25 09:14:14;;;;;;;1.85;1.75;;;;;;;;;;5116671;28;20366;-70
2021/04/25 09:16:40;;;;;;;3.17;2.08;;;;;;;;;;5116668;27;20019;-70
2021/04/25 09:19:06;;;;;;;2.28;2.08;;;;;;;;;;5115182;28;20019;-70
2021/04/25 09:21:33;;;;;;;2.03;1.85;;;;;;;;;;5116463;28;20366;-70
2021/04/25 09:24:18;;;;;;;2.63;2.28;;;;;;;;;;5116541;28;20432;-69
2021/04/25 09:26:43;;;;;;;3.80;2.25;;;;;;;;;;5116437;28;20031;-70
2021/04/25 09:29:09;;;;;;;3.28;1.58;;;;;;;;;;5098104;28;20023;-70
2021/04/25 09:31:39;;;;;;;2.08;1.85;;;;;;;;;;5116225;28;20358;-70
2021/04/25 09:34:04;;;;;;;1.67;1.58;;;;;;;;;;5115183;28;20028;-69
2021/04/25 09:36:29;;;;;;;2.17;1.85;;;;;;;;;;5116137;28;20008;-70
2021/04/25 09:39:07;;;;;;;2.00;1.90;;;;;;;;;;5098055;28;20165;-70
2021/04/25 09:41:33;;;;;;;1.60;1.50;;;;;;;;;;5115864;28;20040;-70
2021/04/25 09:43:59;;;;;;;3.17;1.80;;;;;;;;;;5116072;28;20514;-70
2021/04/25 09:46:25;;;;;;;2.00;1.90;;;;;;;;;;5116055;28;20023;-70
2021/04/25 09:48:50;;;;;;;3.08;1.80;;;;;;;;;;5116079;28;20035;-70
2021/04/25 09:51:21;;;;;;;2.40;1.75;;;;;;;;;;5115946;28;20077;-70
2021/04/25 09:53:50;;;;;;;2.03;1.83;;;;;;;;;;5114649;28;20054;-70
2021/04/25 09:56:20;;;;;;;2.85;2.30;;;;;;;;;;5115760;28;20076;-70
2021/04/25 09:58:58;;;;;;;4.90;3.47;;;;;;;;;;5114600;28;20492;-70
2021/04/25 10:01:26;;;;;;;8.60;4.68;;;;;;;;;;5114681;28;20477;-70
2021/04/25 10:03:51;;;;;;;7.45;4.72;;;;;;;;;;5114435;28;20377;-70
2021/04/25 10:06:19;;;;;;;6.22;3.63;;;;;;;;;;5114321;28;20028;-70
2021/04/25 10:08:49;;;;;;;4.75;3.33;;;;;;;;;;5115703;28;20102;-70
2021/04/25 10:11:14;;;;;;;4.30;3.30;;;;;;;;;;5114493;28;20378;-70
2021/04/25 10:13:45;;;;;;;4.07;3.10;;;;;;;;;;5115491;28;20302;-70
2021/04/25 10:16:17;;;;;;;4.15;3.05;;;;;;;;;;5115462;28;20088;-70
2021/04/25 10:18:43;;;;;;;4.07;3.13;;;;;;;;;;5115501;28;20123;-70
2021/04/25 10:21:08;;;;;;;2.65;1.80;;;;;;;;;;5114123;28;20520;-70
2021/04/25 10:23:34;;;;;;;3.60;2.55;;;;;;;;;;5115318;28;20054;-70
2021/04/25 10:26:01;;;;;;;4.13;2.63;;;;;;;;;;5115201;28;20377;-70
2021/04/25 10:28:29;;;;;;;3.00;2.63;;;;;;;;;;5114057;28;20035;-70
2021/04/25 10:30:59;;;;;;;2.10;1.90;;;;;;;;;;5113597;28;20085;-70
2021/04/25 10:33:24;;;;;;;2.92;2.58;;;;;;;;;;5115348;28;20455;-70
2021/04/25 10:35:56;;;;;;;1.83;1.70;;;;;;;;;;5115141;28;20040;-70
2021/04/25 10:38:36;;;;;;;2.53;2.30;;;;;;;;;;5114993;28;20034;-70
2021/04/25 10:41:22;;;;;;;3.00;2.10;;;;;;;;;;5114359;28;20051;-70
2021/04/25 10:43:59;;;;;;;2.05;1.85;;;;;;;;;;5113525;28;20442;-70
2021/04/25 10:46:25;;;;;;;3.10;2.80;;;;;;;;;;5114782;28;20469;-70
2021/04/25 10:49:11;;;;;;;2.83;2.58;;;;;;;;;;5114777;28;20016;-69
2021/04/25 10:51:43;;;;;;;4.03;2.85;;;;;;;;;;5096504;28;20104;-70
2021/04/25 10:54:08;;;;;;;4.40;3.10;;;;;;;;;;5113407;28;20477;-70
2021/04/25 10:56:34;;;;;;;3.25;2.25;;;;;;;;;;5114574;28;20027;-70
2021/04/25 10:59:18;;;;;;;2.25;1.95;;;;;;;;;;5114599;28;20434;-70
2021/04/25 11:01:45;;;;;;;4.28;2.35;;;;;;;;;;5113188;28;20458;-70
2021/04/25 11:04:10;;;;;;;4.60;2.67;;;;;;;;;;5113284;28;20380;-70
2021/04/25 11:06:36;;;;;;;2.55;2.35;;;;;;;;;;5113085;28;20036;-70
2021/04/25 11:09:01;;;;;;;2.75;2.05;;;;;;;;;;5114460;28;20020;-70
2021/04/25 11:11:31;;;;;;;3.60;2.00;;;;;;;;;;5114350;28;20020;-70
2021/04/25 11:13:57;;;;;;;2.17;1.70;;;;;;;;;;5114455;28;20032;-70
2021/04/25 11:16:22;;;;;;;2.72;2.08;;;;;;;;;;5114405;28;20377;-70
2021/04/25 11:19:04;;;;;;;3.55;2.40;;;;;;;;;;5114121;28;20374;-70
2021/04/25 11:21:37;;;;;;;2.70;2.03;;;;;;;;;;5114128;28;20027;-70
2021/04/25 11:24:03;;;;;;;3.65;2.10;;;;;;;;;;5112973;28;20461;-69
2021/04/25 11:26:34;;;;;;;1.75;1.63;;;;;;;;;;5112853;28;20089;-70
2021/04/25 11:29:02;;;;;;;2.00;1.77;;;;;;;;;;5112771;28;20389;-70
2021/04/25 11:34:26;;;;;;;3.45;2.30;;;;;;;;;;5112712;28;20477;-70
2021/04/25 11:36:57;;;;;;;2.30;2.15;;;;;;;;;;5113868;28;20023;-69
2021/04/25 11:39:30;;;;;;;2.90;2.13;;;;;;;;;;5113950;28;20039;-70
2021/04/25 11:41:56;;;;;;;1.92;1.70;;;;;;;;;;5113388;28;20131;-70
2021/04/25 11:44:27;;;;;;;2.88;1.80;;;;;;;;;;5113801;28;20476;-69
2021/04/25 11:46:53;;;;;;;2.33;1.77;;;;;;;;;;5113885;28;20081;-69
2021/04/25 11:49:29;;;;;;;1.90;1.60;;;;;;;;;;5112572;28;20384;-69
2021/04/25 11:52:13;;;;;;;2.50;1.85;;;;;;;;;;5113760;28;20470;-70
2021/04/25 11:54:40;;;;;;;2.95;1.85;;;;;;;;;;5113789;28;20030;-69
2021/04/25 11:57:13;;;;;;;3.35;2.20;;;;;;;;;;5113735;28;20051;-69
2021/04/25 11:59:54;;;;;;;1.83;1.73;;;;;;;;;;5112424;28;20042;-69
2021/04/25 12:02:19;;;;;;;3.63;1.80;;;;;;;;;;5112269;28;20098;-69
2021/04/25 12:04:49;;;;;;;2.10;1.90;;;;;;;;;;5113500;28;20023;-69
2021/04/25 12:07:32;;;;;;;2.42;1.88;;;;;;;;;;5112358;28;20381;-69
2021/04/25 12:09:58;;;;;;;2.70;2.25;;;;;;;;;;5113516;28;20477;-69
2021/04/25 12:12:23;;;;;;;1.75;1.65;;;;;;;;;;5113413;28;20059;-69
2021/04/25 12:15:00;;;;;;;2.85;2.00;;;;;;;;;;5113261;28;20027;-69
2021/04/25 12:17:26;;;;;;;1.75;1.52;;;;;;;;;;5095180;28;20122;-69
2021/04/25 12:19:52;;;;;;;2.75;1.85;;;;;;;;;;5113249;28;20114;-69
2021/04/25 12:22:18;;;;;;;1.75;1.38;;;;;;;;;;5112045;28;20081;-69
2021/04/25 12:24:44;;;;;;;2.95;2.15;;;;;;;;;;5115794;28;20044;-69
2021/04/25 12:27:10;;;;;;;2.50;1.73;;;;;;;;;;5117737;28;20027;-69
2021/04/25 12:29:36;;;;;;;3.78;2.15;;;;;;;;;;5117639;28;20447;-69
2021/04/25 12:32:02;;;;;;;2.22;2.03;;;;;;;;;;5116163;28;20050;-69
2021/04/25 12:34:30;;;;;;;3.63;1.80;;;;;;;;;;5117430;28;20045;-69
2021/04/25 12:36:58;;;;;;;2.15;1.63;;;;;;;;;;5116315;28;20031;-69
2021/04/25 12:39:24;;;;;;;1.60;1.25;;;;;;;;;;5117318;28;20012;-69
2021/04/25 12:41:52;;;;;;;2.03;1.67;;;;;;;;;;5116832;28;20152;-70
2021/04/25 12:44:19;;;;;;;3.05;1.20;;;;;;;;;;5115986;28;20031;-69
2021/04/25 12:46:57;;;;;;;2.13;1.20;;;;;;;;;;5117167;28;20470;-69
2021/04/25 12:49:42;;;;;;;2.53;1.48;;;;;;;;;;5116004;28;20540;-69
2021/04/25 12:52:08;;;;;;;1.40;1.17;;;;;;;;;;5115531;28;20046;-69
2021/04/25 12:54:41;;;;;;;1.23;1.13;;;;;;;;;;5117100;28;20020;-69
2021/04/25 12:57:06;;;;;;;2.40;1.25;;;;;;;;;;5117058;28;20073;-69
2021/04/25 12:59:36;;;;;;;2.47;1.52;;;;;;;;;;5116940;28;20492;-69
2021/04/25 13:02:01;;;;;;;1.00;0.90;;;;;;;;;;5116993;28;20061;-69
2021/04/25 13:04:27;;;;;;;8.27;3.30;;;;;;;;;;5117078;28;20028;-69
2021/04/25 13:07:22;;;;;;;1.20;1.10;;;;;;;;;;5115672;28;20047;-69
2021/04/25 13:09:54;;;;;;;1.13;1.05;;;;;;;;;;5093927;28;20378;-69
2021/04/25 13:12:20;;;;;;;1.50;1.33;;;;;;;;;;5098376;28;20032;-69
2021/04/25 13:15:13;;;;;;;3.55;3.25;;;;;;;;;;5116475;28;20020;-70
2021/04/25 13:17:40;;;;;;;2.15;1.38;;;;;;;;;;5116549;28;20059;-70
2021/04/25 13:20:17;;;;;;;2.88;1.20;;;;;;;;;;5116572;28;20020;-69
2021/04/25 13:22:50;;;;;;;4.95;3.08;;;;;;;;;;5116650;28;20023;-69
2021/04/25 13:25:15;;;;;;;17.42;7.88;;;;;;;;;;5116291;28;20136;-69
2021/04/25 13:27:41;;;;;;;1.92;1.83;;;;;;;;;;5115256;28;20350;-69
2021/04/25 13:30:07;;;;;;;8.20;4.45;;;;;;;;;;5116634;28;20389;-69
2021/04/25 13:32:32;;;;;;;18.15;7.13;;;;;;;;;;5116810;28;20366;-69
2021/04/25 13:34:58;;;;;;;12.25;5.50;;;;;;;;;;5115938;28;20141;-69
2021/04/25 13:37:23;;;;;;;25.52;10.23;;;;;;;;;;5114932;28;20020;-69
2021/04/25 13:39:49;;;;;;;35.72;15.50;;;;;;;;;;5116899;27;20027;-69
2021/04/25 13:42:14;;;;;;;12.00;5.50;;;;;;;;;;5116299;28;20040;-69
2021/04/25 13:44:39;;;;;;;2.58;2.10;;;;;;;;;;5115083;28;20037;-69
2021/04/25 13:47:05;;;;;;;13.02;6.53;;;;;;;;;;5098187;28;20473;-69
2021/04/25 13:49:31;;;;;;;6.10;4.10;;;;;;;;;;5116524;28;20019;-68
2021/04/25 13:51:56;;;;;;;4.82;3.30;;;;;;;;;;5116443;28;20055;-68
2021/04/25 13:54:22;;;;;;;3.15;2.35;;;;;;;;;;5116386;28;20073;-68
2021/04/25 13:56:47;;;;;;;4.50;2.67;;;;;;;;;;5116081;28;20061;-69
2021/04/25 13:59:13;;;;;;;1.50;1.40;;;;;;;;;;5116309;28;20022;-70
2021/04/25 14:01:41;;;;;;;3.22;2.45;;;;;;;;;;5116012;28;20477;-70
2021/04/25 14:04:07;;;;;;;3.13;1.67;;;;;;;;;;5116008;28;20122;-70
2021/04/25 14:06:34;;;;;;;2.78;2.58;;;;;;;;;;5115990;28;20019;-70
2021/04/25 14:09:00;;;;;;;1.83;1.73;;;;;;;;;;5114612;28;20034;-70
2021/04/25 14:11:25;;;;;;;3.53;3.22;;;;;;;;;;5115935;27;20016;-70
2021/04/25 14:13:51;;;;;;;6.57;3.05;;;;;;;;;;5115976;28;20031;-70
2021/04/25 14:16:23;;;;;;;2.05;1.90;;;;;;;;;;5114726;28;20023;-70
2021/04/25 14:18:49;;;;;;;1.77;1.67;;;;;;;;;;5115746;28;20173;-70
2021/04/25 14:21:15;;;;;;;1.30;1.20;;;;;;;;;;5115473;28;20102;-70
2021/04/25 14:23:41;;;;;;;1.20;1.10;;;;;;;;;;5115767;28;20024;-70
2021/04/25 14:26:07;;;;;;;1.25;1.15;;;;;;;;;;5115651;28;20040;-70
2021/04/25 14:28:34;;;;;;;1.40;1.30;;;;;;;;;;5115530;28;20023;-70
2021/04/25 14:30:59;;;;;;;1.88;1.08;;;;;;;;;;5115374;28;20127;-70
2021/04/25 14:33:25;;;;;;;1.52;1.30;;;;;;;;;;5115228;28;20426;-70